Pag, Croatia
Current Conditions -  °F | °C
As of 3:30 PM on Thursday 30 Oct 2014 (Local Time) from LDZD Reporting Station
Clear Clear  
Wind Chill: 63°   Ceiling: Unl
Heat Index: 63°   Visibility: 6mi
Dew Point: 41°   Wind: 7mph
Humidity: 45%   Direction: 310°NW
Pressure: 30.15"   Gusts: NA
Location:  44.44°N, 15.05°E
Report Text: LDZD 301430Z 31006KT 240V350 CAVOK 17/05 Q1021 NOSIG
Loading
Personal Weather Stations






























Interactive Weather Map
Tropical Storm Tracking
New forecast layout! Learn more

10-Day Weather Forecast

Advertisements
Track Severe Weather on mobile